createdAt,value
2019-05-06T00:02:16.827Z,7.88
2019-05-06T00:04:46.622Z,7.84
2019-05-06T00:07:16.336Z,7.93
2019-05-06T00:09:45.917Z,8.01
2019-05-06T00:12:15.663Z,7.75
2019-05-06T00:14:45.410Z,7.51
2019-05-06T00:17:15.672Z,7.52
2019-05-06T00:19:45.410Z,7.33
2019-05-06T00:22:15.183Z,7.49
2019-05-06T00:24:46.733Z,7.25
2019-05-06T00:27:24.706Z,7.16
2019-05-06T00:29:54.949Z,7.33
2019-05-06T00:32:24.935Z,7.47
2019-05-06T00:34:54.779Z,7.63
2019-05-06T00:37:24.457Z,7.37
2019-05-06T00:39:55.585Z,7.48
2019-05-06T00:42:27.491Z,7.53
2019-05-06T00:44:57.556Z,7.56
2019-05-06T00:47:27.185Z,7.59
2019-05-06T00:49:56.856Z,7.46
2019-05-06T00:52:29.180Z,7.17
2019-05-06T00:54:58.703Z,7.30
2019-05-06T00:57:29.860Z,7.44
2019-05-06T00:59:59.505Z,7.64
2019-05-06T01:02:29.008Z,7.72
2019-05-06T01:05:01.730Z,7.64
2019-05-06T01:07:34.468Z,7.42
2019-05-06T01:10:03.764Z,7.55
2019-05-06T01:12:34.617Z,7.43
2019-05-06T01:15:14.251Z,7.50
2019-05-06T01:17:44.424Z,7.48
2019-05-06T01:20:15.271Z,7.39
2019-05-06T01:22:45.058Z,7.35
2019-05-06T01:25:15.724Z,7.34
2019-05-06T01:27:45.385Z,6.99
2019-05-06T01:30:16.182Z,7.16
2019-05-06T01:32:45.831Z,6.91
2019-05-06T01:35:15.575Z,7.02
2019-05-06T01:37:46.823Z,7.14
2019-05-06T01:40:20.752Z,6.66
2019-05-06T01:42:57.944Z,6.96
2019-05-06T01:45:27.635Z,6.91
2019-05-06T01:47:57.305Z,7.02
2019-05-06T01:50:27.252Z,7.08
2019-05-06T01:52:56.877Z,7.02
2019-05-06T01:55:26.367Z,6.95
2019-05-06T01:57:56.056Z,7.00
2019-05-06T02:00:25.719Z,7.03
2019-05-06T02:02:55.451Z,6.86
2019-05-06T02:05:25.085Z,6.67
2019-05-06T02:07:55.107Z,6.63
2019-05-06T02:10:25.015Z,6.66
2019-05-06T02:12:54.781Z,6.56
2019-05-06T02:15:24.442Z,6.68
2019-05-06T02:17:55.124Z,6.54
2019-05-06T02:20:25.031Z,6.48
2019-05-06T02:22:56.228Z,6.40
2019-05-06T02:25:27.518Z,6.42
2019-05-06T02:27:57.369Z,6.24
2019-05-06T02:30:36.567Z,6.38
2019-05-06T02:33:07.066Z,6.44
2019-05-06T02:35:38.305Z,6.42
2019-05-06T02:38:09.652Z,6.48
2019-05-06T02:40:39.408Z,6.48
2019-05-06T02:43:09.461Z,6.37
2019-05-06T02:45:39.024Z,6.36
2019-05-06T02:48:19.310Z,6.25
2019-05-06T02:50:49.041Z,6.29
2019-05-06T02:53:23.614Z,6.05
2019-05-06T02:55:53.228Z,6.01
2019-05-06T02:58:23.850Z,6.17
2019-05-06T03:00:54.174Z,6.48
2019-05-06T03:03:26.041Z,6.50
2019-05-06T03:05:55.640Z,6.33
2019-05-06T03:08:25.227Z,6.15
2019-05-06T03:10:54.960Z,6.14
2019-05-06T03:13:24.630Z,6.32
2019-05-06T03:15:54.588Z,6.61
2019-05-06T03:18:24.313Z,6.47
2019-05-06T03:20:55.608Z,6.45
2019-05-06T03:23:34.867Z,6.22
2019-05-06T03:26:06.409Z,6.43
2019-05-06T03:28:34.996Z,6.55
2019-05-06T03:31:06.600Z,6.40
2019-05-06T03:33:55.056Z,6.45
2019-05-06T03:36:18.734Z,6.48
2019-05-06T03:38:42.810Z,6.28
2019-05-06T03:41:13.658Z,6.54
2019-05-06T03:43:43.383Z,6.48
2019-05-06T03:46:18.038Z,6.25
2019-05-06T03:48:52.893Z,6.36
2019-05-06T03:51:23.337Z,6.61
2019-05-06T03:53:56.809Z,6.39
2019-05-06T03:56:29.017Z,6.35
2019-05-06T03:59:02.657Z,6.22
2019-05-06T04:01:33.541Z,6.51
2019-05-06T04:04:03.552Z,6.41
2019-05-06T04:06:33.692Z,6.49
2019-05-06T04:09:08.567Z,6.69
2019-05-06T04:11:43.052Z,6.64
2019-05-06T04:14:13.925Z,6.66
2019-05-06T04:16:48.230Z,6.77
2019-05-06T04:19:19.762Z,6.87
2019-05-06T04:21:54.192Z,6.92
2019-05-06T04:24:28.910Z,6.66
2019-05-06T04:27:48.572Z,6.71
2019-05-06T04:30:19.782Z,6.83
2019-05-06T04:32:52.873Z,6.77
2019-05-06T04:35:22.967Z,7.06
2019-05-06T04:37:53.941Z,7.03
2019-05-06T04:40:24.152Z,7.25
2019-05-06T04:42:53.994Z,7.33
2019-05-06T04:45:25.603Z,7.20
2019-05-06T04:47:55.466Z,7.39
2019-05-06T04:50:25.123Z,6.84
2019-05-06T04:52:56.481Z,7.20
2019-05-06T04:55:26.137Z,7.33
2019-05-06T04:57:55.836Z,7.22
2019-05-06T05:00:28.162Z,7.43
2019-05-06T05:02:57.811Z,7.38
2019-05-06T05:05:27.533Z,7.60
2019-05-06T05:07:57.381Z,7.78
2019-05-06T05:10:28.834Z,7.90
2019-05-06T05:13:18.914Z,7.93
2019-05-06T05:16:02.431Z,8.11
2019-05-06T05:18:33.906Z,8.22
2019-05-06T05:21:04.254Z,8.17
2019-05-06T05:23:34.028Z,8.49
2019-05-06T05:26:03.886Z,8.41
2019-05-06T05:28:33.599Z,8.34
2019-05-06T05:31:03.253Z,8.60
2019-05-06T05:33:33.732Z,8.48
2019-05-06T05:36:03.665Z,8.37
2019-05-06T05:38:33.854Z,8.14
2019-05-06T05:41:03.568Z,8.32
2019-05-06T05:43:39.879Z,8.55
2019-05-06T05:46:12.594Z,8.74
2019-05-06T05:48:51.849Z,8.48
2019-05-06T05:51:22.233Z,8.94
2019-05-06T05:53:52.443Z,8.96
2019-05-06T05:56:24.025Z,9.22
2019-05-06T05:58:53.842Z,9.33
2019-05-06T06:01:25.361Z,9.22
2019-05-06T06:03:55.387Z,9.49
2019-05-06T06:06:25.115Z,9.44
2019-05-06T06:08:54.762Z,9.57
2019-05-06T06:11:42.084Z,9.87
2019-05-06T06:14:13.831Z,9.65
2019-05-06T06:16:45.052Z,9.31
2019-05-06T06:19:28.425Z,9.65
2019-05-06T06:22:00.269Z,9.50
2019-05-06T06:24:32.706Z,9.65
2019-05-06T06:27:03.167Z,9.83
2019-05-06T06:29:33.377Z,10.00
2019-05-06T06:32:23.208Z,10.01
2019-05-06T06:35:06.642Z,10.30
2019-05-06T06:37:28.675Z,9.97
2019-05-06T06:40:02.497Z,10.56
2019-05-06T06:42:33.532Z,10.43
2019-05-06T06:45:03.822Z,10.84
2019-05-06T06:47:33.424Z,10.78
2019-05-06T06:50:03.423Z,11.13
2019-05-06T06:52:33.549Z,11.46
2019-05-06T06:55:03.982Z,11.40
2019-05-06T06:57:35.163Z,11.53
2019-05-06T07:00:23.658Z,11.76
2019-05-06T07:02:56.132Z,11.80
2019-05-06T07:05:35.917Z,11.96
2019-05-06T07:08:05.643Z,11.89
2019-05-06T07:10:43.921Z,11.64
2019-05-06T07:13:16.385Z,11.88
2019-05-06T07:15:46.316Z,12.22
2019-05-06T07:18:16.002Z,12.28
2019-05-06T07:20:45.434Z,12.88
2019-05-06T07:23:26.041Z,13.07
2019-05-06T07:25:56.170Z,13.40
2019-05-06T07:28:26.111Z,13.80
2019-05-06T07:31:13.846Z,14.10
2019-05-06T07:33:28.925Z,13.79
2019-05-06T07:35:58.942Z,13.95
2019-05-06T07:38:28.558Z,13.68
2019-05-06T07:41:04.515Z,13.48
2019-05-06T07:43:42.051Z,13.77
2019-05-06T07:46:23.509Z,13.53
2019-05-06T07:48:53.860Z,13.19
2019-05-06T07:51:23.898Z,13.43
2019-05-06T07:53:53.792Z,13.37
2019-05-06T07:56:23.438Z,13.52
2019-05-06T07:58:54.746Z,13.33
2019-05-06T08:01:26.151Z,13.70
2019-05-06T08:03:59.441Z,14.03
2019-05-06T08:06:29.161Z,14.10
2019-05-06T08:08:58.898Z,13.88
2019-05-06T08:11:28.757Z,14.33
2019-05-06T08:13:58.458Z,13.84
2019-05-06T08:16:31.825Z,14.09
2019-05-06T08:19:02.737Z,13.91
2019-05-06T08:21:39.672Z,13.98
2019-05-06T08:24:09.525Z,14.13
2019-05-06T08:26:39.607Z,14.70
2019-05-06T08:29:11.656Z,14.69
2019-05-06T08:31:43.066Z,14.62
2019-05-06T08:34:12.593Z,14.01
2019-05-06T08:36:42.758Z,13.65
2019-05-06T08:39:14.648Z,13.65
2019-05-06T08:41:44.363Z,14.03
2019-05-06T08:44:14.205Z,14.43
2019-05-06T08:46:44.171Z,14.95
2019-05-06T08:49:14.016Z,15.06
2019-05-06T08:51:48.821Z,15.95
2019-05-06T08:54:22.777Z,15.64
2019-05-06T08:56:52.470Z,15.28
2019-05-06T08:59:24.040Z,15.06
2019-05-06T09:01:55.207Z,15.63
2019-05-06T09:04:24.863Z,15.09
2019-05-06T09:06:54.665Z,14.75
2019-05-06T09:09:25.307Z,15.10
2019-05-06T09:11:58.168Z,15.25
2019-05-06T09:14:27.882Z,15.72
2019-05-06T09:16:57.608Z,15.54
2019-05-06T09:19:27.257Z,15.39
2019-05-06T09:21:57.204Z,15.51
2019-05-06T09:24:26.971Z,15.68
2019-05-06T09:27:12.292Z,15.35
2019-05-06T09:29:43.641Z,15.47
2019-05-06T09:32:14.846Z,15.54
2019-05-06T09:34:46.009Z,15.28
2019-05-06T09:37:17.193Z,15.07
2019-05-06T09:39:47.749Z,14.94
2019-05-06T09:42:18.107Z,14.85
2019-05-06T09:44:50.613Z,14.99
2019-05-06T09:47:25.637Z,15.06
2019-05-06T09:49:55.267Z,15.08
2019-05-06T09:52:24.800Z,15.05
2019-05-06T09:54:56.091Z,15.25
2019-05-06T09:57:27.363Z,15.71
2019-05-06T09:59:56.946Z,15.75
2019-05-06T10:02:26.684Z,16.01
2019-05-06T10:04:57.121Z,16.18
2019-05-06T10:07:26.771Z,16.37
2019-05-06T10:09:56.437Z,16.84
2019-05-06T10:12:26.086Z,17.36
2019-05-06T10:14:55.659Z,17.35
2019-05-06T10:17:25.293Z,16.91
2019-05-06T10:19:56.373Z,16.79
2019-05-06T10:22:25.939Z,16.50
2019-05-06T10:24:55.479Z,16.36
2019-05-06T10:27:25.256Z,15.84
2019-05-06T10:30:07.874Z,16.37
2019-05-06T10:32:39.053Z,16.22
2019-05-06T10:35:12.964Z,15.38
2019-05-06T10:37:49.675Z,14.98
2019-05-06T10:40:26.624Z,14.73
2019-05-06T10:43:33.702Z,14.03
2019-05-06T10:46:04.079Z,13.95
2019-05-06T10:48:33.911Z,13.85
2019-05-06T10:51:16.837Z,13.90
2019-05-06T10:53:45.036Z,13.59
2019-05-06T10:56:26.316Z,13.21
2019-05-06T10:58:57.660Z,13.71
2019-05-06T11:01:36.636Z,14.10
2019-05-06T11:04:06.651Z,15.27
2019-05-06T11:06:38.028Z,15.93
2019-05-06T11:09:10.593Z,16.42
2019-05-06T11:11:42.577Z,16.41
2019-05-06T11:14:12.699Z,16.11
2019-05-06T11:16:42.937Z,16.32
2019-05-06T11:19:13.301Z,16.76
2019-05-06T11:21:45.212Z,16.61
2019-05-06T11:24:14.582Z,16.88
2019-05-06T11:26:44.090Z,16.58
2019-05-06T11:29:20.832Z,16.47
2019-05-06T11:31:54.479Z,16.74
2019-05-06T11:34:32.619Z,16.17
2019-05-06T11:37:03.984Z,15.73
2019-05-06T11:39:33.495Z,14.99
2019-05-06T11:42:23.767Z,14.14
2019-05-06T11:44:34.352Z,13.45
2019-05-06T11:47:04.087Z,12.84
2019-05-06T11:49:34.079Z,12.79
2019-05-06T11:52:03.642Z,12.60
2019-05-06T11:54:33.860Z,12.59
2019-05-06T11:57:05.352Z,12.45
2019-05-06T11:59:35.018Z,12.61
2019-05-06T12:02:06.401Z,12.59
2019-05-06T12:04:37.230Z,12.47
2019-05-06T12:07:11.288Z,12.26
2019-05-06T12:09:38.208Z,12.19
2019-05-06T12:12:07.843Z,11.86
2019-05-06T12:14:37.370Z,11.90
2019-05-06T12:17:06.888Z,11.82
2019-05-06T12:19:36.441Z,12.68
2019-05-06T12:22:06.409Z,13.20
2019-05-06T12:24:35.960Z,13.42
2019-05-06T12:27:05.814Z,13.72
2019-05-06T12:29:38.227Z,13.56
2019-05-06T12:32:14.426Z,14.15
2019-05-06T12:34:44.018Z,14.40
2019-05-06T12:37:15.246Z,14.44
2019-05-06T12:39:48.052Z,14.58
2019-05-06T12:42:19.629Z,15.39
2019-05-06T12:44:52.946Z,16.10
2019-05-06T12:47:27.213Z,16.41
2019-05-06T12:49:56.842Z,16.67
2019-05-06T12:52:26.517Z,16.34
2019-05-06T12:55:13.691Z,15.49
2019-05-06T12:57:27.435Z,15.39
2019-05-06T12:59:57.074Z,15.29
2019-05-06T13:02:26.750Z,14.48
2019-05-06T13:05:00.686Z,13.85
2019-05-06T13:07:29.332Z,13.63
2019-05-06T13:09:59.449Z,14.13
2019-05-06T13:12:33.490Z,13.84
2019-05-06T13:15:03.837Z,13.95
2019-05-06T13:17:33.408Z,14.41
2019-05-06T13:20:03.104Z,14.59
2019-05-06T13:22:40.043Z,14.72
2019-05-06T13:25:13.345Z,14.63
2019-05-06T13:27:42.788Z,14.44
2019-05-06T13:30:14.506Z,14.40
2019-05-06T13:32:45.754Z,14.45
2019-05-06T13:35:15.768Z,14.16
2019-05-06T13:37:45.495Z,14.23
2019-05-06T13:40:15.394Z,14.25
2019-05-06T13:42:46.840Z,14.63
2019-05-06T13:45:17.176Z,14.63
2019-05-06T13:47:46.462Z,14.30
2019-05-06T13:50:24.976Z,14.39
2019-05-06T13:53:08.085Z,14.29
2019-05-06T13:55:27.685Z,13.69
2019-05-06T13:57:57.290Z,13.68
2019-05-06T14:00:27.030Z,13.68
2019-05-06T14:02:58.413Z,13.62
2019-05-06T14:05:30.106Z,13.76
2019-05-06T14:08:02.550Z,14.03
2019-05-06T14:10:32.782Z,14.40
2019-05-06T14:13:02.825Z,14.47
2019-05-06T14:15:32.629Z,14.94
2019-05-06T14:18:02.998Z,15.48
2019-05-06T14:20:34.004Z,15.85
2019-05-06T14:23:03.602Z,16.11
2019-05-06T14:25:43.570Z,16.00
2019-05-06T14:28:20.661Z,15.98
2019-05-06T14:30:54.267Z,15.45
2019-05-06T14:33:23.868Z,15.35
2019-05-06T14:35:53.550Z,15.26
2019-05-06T14:38:27.210Z,15.36
2019-05-06T14:41:07.900Z,15.07
2019-05-06T14:43:38.443Z,14.77
2019-05-06T14:46:08.192Z,14.71
2019-05-06T14:48:37.766Z,14.32
2019-05-06T14:51:07.543Z,14.34
2019-05-06T14:53:37.113Z,14.39
2019-05-06T14:56:12.917Z,13.93
2019-05-06T14:58:43.952Z,13.60
2019-05-06T15:01:13.809Z,13.67
2019-05-06T15:03:43.292Z,13.37
2019-05-06T15:06:13.116Z,12.81
2019-05-06T15:08:43.323Z,12.87
2019-05-06T15:11:12.853Z,13.12
2019-05-06T15:13:42.800Z,13.30
2019-05-06T15:16:13.204Z,13.44
2019-05-06T15:18:42.810Z,13.37
2019-05-06T15:21:33.823Z,13.38
2019-05-06T15:23:44.866Z,13.33
2019-05-06T15:26:14.368Z,13.25
2019-05-06T15:28:43.913Z,13.23
2019-05-06T15:31:19.474Z,13.04
2019-05-06T15:33:53.677Z,12.89
2019-05-06T15:36:24.847Z,12.61
2019-05-06T15:38:54.463Z,12.53
2019-05-06T15:41:25.561Z,12.57
2019-05-06T15:43:55.083Z,12.51
2019-05-06T15:46:24.601Z,12.31
2019-05-06T15:48:54.167Z,12.25
2019-05-06T15:51:25.328Z,12.28
2019-05-06T15:53:54.872Z,12.20
2019-05-06T15:56:24.467Z,11.93
2019-05-06T15:58:54.076Z,12.22
2019-05-06T16:01:23.632Z,12.24
2019-05-06T16:03:54.519Z,12.46
2019-05-06T16:06:24.107Z,12.38
2019-05-06T16:08:54.218Z,12.11
2019-05-06T16:11:23.927Z,12.02
2019-05-06T16:13:53.548Z,12.02
2019-05-06T16:16:23.224Z,11.92
2019-05-06T16:19:13.473Z,11.90
2019-05-06T16:21:45.267Z,11.94
2019-05-06T16:24:28.102Z,12.20
2019-05-06T16:26:57.636Z,12.16
2019-05-06T16:29:35.615Z,12.13
2019-05-06T16:32:07.551Z,12.11
2019-05-06T16:34:37.258Z,11.98
2019-05-06T16:37:07.521Z,11.61
2019-05-06T16:39:37.084Z,11.58
2019-05-06T16:42:07.505Z,11.54
2019-05-06T16:44:40.464Z,11.50
2019-05-06T16:47:11.796Z,11.62
2019-05-06T16:49:42.290Z,11.17
2019-05-06T16:52:13.069Z,10.77
2019-05-06T16:54:42.718Z,11.04
2019-05-06T16:57:13.949Z,10.94
2019-05-06T16:59:43.739Z,10.96
2019-05-06T17:02:14.959Z,10.88
2019-05-06T17:04:46.129Z,10.85
2019-05-06T17:07:16.346Z,10.97
2019-05-06T17:09:45.971Z,11.04
2019-05-06T17:12:15.489Z,11.15
2019-05-06T17:14:45.111Z,11.13
2019-05-06T17:17:14.897Z,11.13
2019-05-06T17:19:44.434Z,11.01
2019-05-06T17:22:14.570Z,11.23
2019-05-06T17:24:44.102Z,11.14
2019-05-06T17:27:13.690Z,10.55
2019-05-06T17:29:47.803Z,10.45
2019-05-06T17:32:28.325Z,9.98
2019-05-06T17:35:02.420Z,10.20
2019-05-06T17:37:48.227Z,10.35
2019-05-06T17:40:20.051Z,10.49
2019-05-06T17:42:53.284Z,10.10
2019-05-06T17:45:40.391Z,10.12
2019-05-06T17:48:17.108Z,9.76
2019-05-06T17:50:48.278Z,9.42
2019-05-06T17:53:17.887Z,9.42
2019-05-06T17:55:47.597Z,9.55
2019-05-06T17:58:17.653Z,9.65
2019-05-06T18:00:47.305Z,9.83
2019-05-06T18:03:16.962Z,9.89
2019-05-06T18:05:47.621Z,10.22
2019-05-06T18:08:17.204Z,9.61
2019-05-06T18:10:46.773Z,10.02
2019-05-06T18:13:16.496Z,10.06
2019-05-06T18:15:46.023Z,10.14
2019-05-06T18:18:15.704Z,9.87
2019-05-06T18:20:45.236Z,9.76
2019-05-06T18:23:14.890Z,9.47
2019-05-06T18:25:44.455Z,9.65
2019-05-06T18:28:14.418Z,9.83
2019-05-06T18:30:43.955Z,9.85
2019-05-06T18:33:13.462Z,9.81
2019-05-06T18:35:44.790Z,9.73
2019-05-06T18:38:14.353Z,9.51
2019-05-06T18:40:44.166Z,9.72
2019-05-06T18:43:14.289Z,9.88
2019-05-06T18:45:44.025Z,9.85
2019-05-06T18:48:13.781Z,10.00
2019-05-06T18:50:43.525Z,9.99
2019-05-06T18:53:13.418Z,9.78
2019-05-06T18:55:43.239Z,9.88
2019-05-06T18:58:13.022Z,9.96
2019-05-06T19:00:43.966Z,10.01
2019-05-06T19:03:14.663Z,10.11
2019-05-06T19:05:49.710Z,10.13
2019-05-06T19:08:37.138Z,10.07
2019-05-06T19:11:08.476Z,9.98
2019-05-06T19:13:37.964Z,9.82
2019-05-06T19:16:07.642Z,9.93
2019-05-06T19:18:38.679Z,9.71
2019-05-06T19:21:08.432Z,10.00
2019-05-06T19:23:37.969Z,10.01
2019-05-06T19:26:07.698Z,9.98
2019-05-06T19:28:37.379Z,9.84
2019-05-06T19:31:06.960Z,9.97
2019-05-06T19:33:38.341Z,10.04
2019-05-06T19:36:08.056Z,10.00
2019-05-06T19:38:37.631Z,10.02
2019-05-06T19:41:07.408Z,9.93
2019-05-06T19:43:37.256Z,9.90
2019-05-06T19:46:06.956Z,9.88
2019-05-06T19:48:36.573Z,10.07
2019-05-06T19:51:06.149Z,10.21
2019-05-06T19:53:35.801Z,9.92
2019-05-06T19:56:05.469Z,9.93
2019-05-06T19:58:35.025Z,9.97
2019-05-06T20:01:05.706Z,10.00
2019-05-06T20:03:35.794Z,9.90
2019-05-06T20:06:23.784Z,9.85
2019-05-06T20:08:55.182Z,9.85
2019-05-06T20:11:26.537Z,9.64
2019-05-06T20:13:56.137Z,9.93
2019-05-06T20:16:25.931Z,10.17
2019-05-06T20:18:55.437Z,10.15
2019-05-06T20:21:25.175Z,10.23
2019-05-06T20:23:54.816Z,10.15
2019-05-06T20:26:24.385Z,9.90
2019-05-06T20:28:57.242Z,9.82
2019-05-06T20:31:28.651Z,10.00
2019-05-06T20:33:58.298Z,10.08
2019-05-06T20:36:33.194Z,9.91
2019-05-06T20:39:04.327Z,9.64
2019-05-06T20:41:34.151Z,9.81
2019-05-06T20:44:06.376Z,10.08
2019-05-06T20:46:42.980Z,10.26
2019-05-06T20:49:15.848Z,10.36
2019-05-06T20:51:45.978Z,9.98
2019-05-06T20:54:15.513Z,10.11
2019-05-06T20:56:45.231Z,10.20
2019-05-06T20:59:15.144Z,10.38
2019-05-06T21:01:45.081Z,10.32
2019-05-06T21:04:14.629Z,10.32
2019-05-06T21:06:46.243Z,9.96
2019-05-06T21:09:15.765Z,10.09
2019-05-06T21:11:45.284Z,10.25
2019-05-06T21:14:14.967Z,10.13
2019-05-06T21:16:47.698Z,10.12
2019-05-06T21:19:16.000Z,9.87
2019-05-06T21:21:45.645Z,10.08
2019-05-06T21:24:15.293Z,10.01
2019-05-06T21:26:46.427Z,10.15
2019-05-06T21:29:16.238Z,10.12
2019-05-06T21:31:45.931Z,10.01
2019-05-06T21:34:15.897Z,9.97
2019-05-06T21:36:45.494Z,10.07
2019-05-06T21:39:15.260Z,10.02
2019-05-06T21:41:44.940Z,9.99
2019-05-06T21:44:14.567Z,10.01
2019-05-06T21:46:44.256Z,10.13
2019-05-06T21:49:14.358Z,9.86
2019-05-06T21:51:44.479Z,10.01
2019-05-06T21:54:14.138Z,10.01
2019-05-06T21:56:44.096Z,9.54
2019-05-06T21:59:13.768Z,9.47
2019-05-06T22:01:43.422Z,9.68
2019-05-06T22:04:13.160Z,9.75
2019-05-06T22:06:45.604Z,9.58
2019-05-06T22:09:14.390Z,9.54
2019-05-06T22:11:43.984Z,9.57
2019-05-06T22:14:13.713Z,9.74
2019-05-06T22:16:43.823Z,9.66
2019-05-06T22:19:13.735Z,9.58
2019-05-06T22:21:54.155Z,9.48
2019-05-06T22:24:29.629Z,9.33
2019-05-06T22:26:59.358Z,9.47
2019-05-06T22:29:32.985Z,9.44
2019-05-06T22:32:02.816Z,9.38
2019-05-06T22:34:33.005Z,9.51
2019-05-06T22:37:03.304Z,9.44
2019-05-06T22:39:34.267Z,9.58
2019-05-06T22:42:03.814Z,9.52
2019-05-06T22:44:35.485Z,9.44
2019-05-06T22:47:05.281Z,9.39
2019-05-06T22:49:34.832Z,9.38
2019-05-06T22:52:04.873Z,9.07
2019-05-06T22:54:34.655Z,8.99
2019-05-06T22:57:04.239Z,8.97
2019-05-06T22:59:33.825Z,9.28
2019-05-06T23:02:13.917Z,9.33
2019-05-06T23:04:45.162Z,9.33
2019-05-06T23:07:14.732Z,9.17
2019-05-06T23:09:44.362Z,8.88
2019-05-06T23:12:14.586Z,8.75
2019-05-06T23:14:44.125Z,8.75
2019-05-06T23:17:13.753Z,8.57
2019-05-06T23:19:43.378Z,8.55
2019-05-06T23:22:13.023Z,8.62
2019-05-06T23:24:42.668Z,8.83
2019-05-06T23:27:12.747Z,8.87
2019-05-06T23:29:44.972Z,8.77
2019-05-06T23:32:14.117Z,8.78
2019-05-06T23:34:43.653Z,8.60
2019-05-06T23:37:18.751Z,8.51
2019-05-06T23:40:43.094Z,8.41
2019-05-06T23:44:06.968Z,8.43
2019-05-06T23:47:32.353Z,8.20
2019-05-06T23:50:57.793Z,8.35
2019-05-06T23:54:23.527Z,8.08
2019-05-06T23:56:52.192Z,7.98
2019-05-06T23:59:22.561Z,7.92
